Time;durP1;ratioP1;P1;durP2;ratioP2;P2;SDS_P1;SDS_P2;PMS_P1;PMS_P2;Temp;Humidity;BMP_temperature;BMP_pressure;BME280_temperature;BME280_humidity;BME280_pressure;Samples;Min_cycle;Max_cycle;Signal;HPM_P1;HPM_P2
2022/05/13 00:01:08;;;;;;;5.50;3.40;;;18.30;60.40;;;;;;4841594;29;20461;-82
2022/05/13 00:03:35;;;;;;;6.50;3.40;;;18.30;60.50;;;;;;4842480;29;20489;-82
2022/05/13 00:06:02;;;;;;;5.37;2.77;;;18.30;60.60;;;;;;4845142;29;20471;-81
2022/05/13 00:08:30;;;;;;;5.20;3.60;;;18.30;60.60;;;;;;4841343;29;20466;-82
2022/05/13 00:10:57;;;;;;;5.43;3.30;;;18.30;60.60;;;;;;4848363;29;20473;-81
2022/05/13 00:13:23;;;;;;;6.00;2.70;;;18.30;60.70;;;;;;4842443;29;20485;-80
2022/05/13 00:15:50;;;;;;;2.93;2.27;;;18.30;60.90;;;;;;4838174;29;20548;-82
2022/05/13 00:18:17;;;;;;;4.23;3.03;;;18.20;61.00;;;;;;4841535;29;20898;-81
2022/05/13 00:20:44;;;;;;;3.83;2.97;;;18.20;61.50;;;;;;4843256;29;20481;-81
2022/05/13 00:23:11;;;;;;;5.40;3.30;;;18.20;61.80;;;;;;4839554;29;20462;-83
2022/05/13 00:25:39;;;;;;;8.70;3.63;;;18.20;61.90;;;;;;4854445;29;20488;-82
2022/05/13 00:28:07;;;;;;;3.00;2.80;;;18.20;62.00;;;;;;4838979;29;20461;-80
2022/05/13 00:30:39;;;;;;;4.93;3.67;;;18.10;62.20;;;;;;4839681;29;20484;-81
2022/05/13 00:33:06;;;;;;;6.70;4.10;;;18.10;62.60;;;;;;4846834;29;20485;-81
2022/05/13 00:35:33;;;;;;;5.70;3.47;;;18.00;63.00;;;;;;4861182;29;20963;-80
2022/05/13 00:38:00;;;;;;;8.30;3.47;;;17.90;63.40;;;;;;4851831;29;20480;-83
2022/05/13 00:40:27;;;;;;;8.90;2.90;;;18.00;63.80;;;;;;4850410;29;20472;-81
2022/05/13 00:43:05;;;;;;;4.20;3.10;;;17.90;64.20;;;;;;4846063;29;21140;-82
2022/05/13 00:45:32;;;;;;;5.40;3.40;;;17.90;64.60;;;;;;4840767;29;20588;-83
2022/05/13 00:48:00;;;;;;;6.40;3.03;;;17.90;64.80;;;;;;4842678;29;20494;-82
2022/05/13 00:50:30;;;;;;;5.13;3.10;;;17.70;65.20;;;;;;4841723;29;20470;-81
2022/05/13 00:52:58;;;;;;;6.23;3.10;;;17.70;65.60;;;;;;4843563;29;20500;-83
2022/05/13 00:55:30;;;;;;;7.30;3.67;;;17.70;65.70;;;;;;4844908;29;20504;-83
2022/05/13 00:57:58;;;;;;;4.67;2.73;;;17.60;65.90;;;;;;4847149;29;20457;-81
2022/05/13 01:00:26;;;;;;;6.17;3.43;;;17.60;66.00;;;;;;4856157;29;20474;-80
2022/05/13 01:02:52;;;;;;;6.90;3.83;;;17.50;66.40;;;;;;4847260;29;20533;-80
2022/05/13 01:05:20;;;;;;;6.63;4.47;;;17.40;66.60;;;;;;4851688;29;20474;-82
2022/05/13 01:07:47;;;;;;;11.03;3.50;;;17.30;66.90;;;;;;4844417;29;20482;-80
2022/05/13 01:10:21;;;;;;;4.47;2.77;;;17.40;66.90;;;;;;4850834;29;20473;-79
2022/05/13 01:12:52;;;;;;;5.97;3.10;;;17.40;66.30;;;;;;4846581;29;20504;-80
2022/05/13 01:15:31;;;;;;;4.93;2.60;;;17.30;65.60;;;;;;4850770;29;20489;-82
2022/05/13 01:18:06;;;;;;;9.80;3.37;;;17.30;65.50;;;;;;4865651;29;20462;-81
2022/05/13 01:20:46;;;;;;;3.33;2.07;;;17.30;64.90;;;;;;4852333;29;20480;-80
2022/05/13 01:23:20;;;;;;;4.50;3.00;;;17.30;64.40;;;;;;4852362;29;20750;-82
2022/05/13 01:25:50;;;;;;;3.10;1.97;;;17.30;64.00;;;;;;4852506;29;20481;-81
2022/05/13 01:28:24;;;;;;;5.30;2.37;;;17.30;63.70;;;;;;4843172;29;20469;-81
2022/05/13 01:30:54;;;;;;;5.73;2.43;;;17.20;63.20;;;;;;4858680;29;20476;-82
2022/05/13 01:33:21;;;;;;;4.40;2.00;;;17.20;63.00;;;;;;4860004;29;20510;-82
2022/05/13 01:35:51;;;;;;;5.47;2.30;;;17.20;63.40;;;;;;4847902;29;21541;-82
2022/05/13 01:38:24;;;;;;;7.33;2.30;;;17.20;63.50;;;;;;4845767;29;20465;-82
2022/05/13 01:40:51;;;;;;;5.97;2.30;;;17.20;63.50;;;;;;4847462;29;20468;-82
2022/05/13 01:43:18;;;;;;;5.13;2.30;;;17.20;63.50;;;;;;4847002;29;20944;-83
2022/05/13 01:45:45;;;;;;;5.03;2.73;;;17.20;63.80;;;;;;4849672;29;20580;-81
2022/05/13 01:48:12;;;;;;;10.40;3.10;;;17.10;64.00;;;;;;4843412;29;20473;-80
2022/05/13 01:50:39;;;;;;;7.60;4.70;;;17.00;64.80;;;;;;4844472;29;20557;-80
2022/05/13 01:53:07;;;;;;;6.43;3.90;;;17.10;65.40;;;;;;4846939;29;20494;-83
2022/05/13 01:55:35;;;;;;;10.97;4.30;;;17.10;65.80;;;;;;4848156;29;21396;-81
2022/05/13 01:58:02;;;;;;;9.57;3.63;;;17.00;66.30;;;;;;4852623;29;20579;-82
2022/05/13 02:00:29;;;;;;;9.43;4.40;;;17.00;67.00;;;;;;4849525;29;21868;-82
2022/05/13 02:05:41;;;;;;;8.10;3.10;;;16.90;68.00;;;;;;4853331;29;20476;-80
2022/05/13 02:08:08;;;;;;;6.93;3.33;;;16.80;68.30;;;;;;4857444;29;20521;-83
2022/05/13 02:10:34;;;;;;;4.20;2.30;;;16.70;68.40;;;;;;4851962;29;20461;-80
2022/05/13 02:13:01;;;;;;;11.23;4.07;;;16.60;68.60;;;;;;4850725;29;20577;-80
2022/05/13 02:15:28;;;;;;;6.80;2.90;;;16.60;68.30;;;;;;4846203;29;20481;-80
2022/05/13 02:17:55;;;;;;;12.80;2.60;;;16.60;68.30;;;;;;4854643;29;20480;-80
2022/05/13 02:20:21;;;;;;;4.73;3.50;;;16.60;68.50;;;;;;4862405;29;20465;-82
2022/05/13 02:22:48;;;;;;;8.20;3.27;;;16.70;68.70;;;;;;4865915;29;20472;-83
2022/05/13 02:25:15;;;;;;;8.03;3.40;;;16.60;68.60;;;;;;4867828;29;20473;-80
2022/05/13 02:27:42;;;;;;;5.03;2.53;;;16.60;68.70;;;;;;4866821;29;20449;-81
2022/05/13 02:30:09;;;;;;;5.80;2.60;;;16.60;68.70;;;;;;4862506;29;20461;-81
2022/05/13 02:32:36;;;;;;;4.10;2.80;;;16.60;68.60;;;;;;4849542;29;20551;-81
2022/05/13 02:35:04;;;;;;;3.60;2.30;;;16.60;68.30;;;;;;4841602;29;20481;-80
2022/05/13 02:37:30;;;;;;;3.47;2.00;;;16.60;68.00;;;;;;4846455;29;20476;-80
2022/05/13 02:39:57;;;;;;;4.53;1.83;;;16.50;67.60;;;;;;4839628;29;20462;-81
2022/05/13 02:42:24;;;;;;;4.53;2.07;;;16.50;67.70;;;;;;4840148;29;20463;-81
2022/05/13 02:44:52;;;;;;;7.87;2.00;;;16.50;67.40;;;;;;4841020;29;20584;-81
2022/05/13 02:47:18;;;;;;;2.33;2.13;;;16.80;66.80;;;;;;4844519;29;20461;-81
2022/05/13 02:49:45;;;;;;;3.50;2.30;;;16.70;66.10;;;;;;4840124;29;21093;-82
2022/05/13 02:52:12;;;;;;;4.20;2.80;;;16.70;66.10;;;;;;4853163;29;20472;-82
2022/05/13 02:54:39;;;;;;;6.30;2.20;;;16.40;66.70;;;;;;4842091;29;21063;-82
2022/05/13 02:57:05;;;;;;;2.40;1.47;;;16.20;67.60;;;;;;4843101;29;20481;-81
2022/05/13 02:59:32;;;;;;;2.70;1.90;;;15.90;68.00;;;;;;4842358;29;20457;-81
2022/05/13 03:01:59;;;;;;;4.07;2.27;;;15.90;68.90;;;;;;4857719;29;20468;-81
2022/05/13 03:04:25;;;;;;;5.50;2.23;;;16.10;68.70;;;;;;4839892;29;20540;-80
2022/05/13 03:06:53;;;;;;;3.40;1.70;;;16.00;68.20;;;;;;4852945;29;20668;-81
2022/05/13 03:09:19;;;;;;;4.07;1.70;;;15.90;68.40;;;;;;4840441;29;20462;-80
2022/05/13 03:11:46;;;;;;;2.37;1.70;;;15.90;68.30;;;;;;4855360;29;20499;-81
2022/05/13 03:14:13;;;;;;;4.73;1.90;;;15.80;67.40;;;;;;4837947;29;20489;-80
2022/05/13 03:16:39;;;;;;;4.77;1.60;;;15.80;67.20;;;;;;4841523;29;20468;-80
2022/05/13 03:19:06;;;;;;;4.10;1.87;;;15.80;67.00;;;;;;4845779;29;20481;-81
2022/05/13 03:21:33;;;;;;;3.67;2.00;;;15.80;66.90;;;;;;4844644;29;20874;-79
2022/05/13 03:24:00;;;;;;;3.63;1.90;;;15.80;66.90;;;;;;4845465;29;20493;-80
2022/05/13 03:26:26;;;;;;;4.50;1.97;;;15.80;67.00;;;;;;4845342;29;20463;-80
2022/05/13 03:28:53;;;;;;;4.50;2.10;;;15.80;67.00;;;;;;4843756;29;20469;-81
2022/05/13 03:31:20;;;;;;;5.50;2.00;;;15.70;66.90;;;;;;4844120;29;20453;-80
2022/05/13 03:33:47;;;;;;;3.77;1.80;;;15.70;67.00;;;;;;4845127;29;20495;-81
2022/05/13 03:36:14;;;;;;;4.30;2.00;;;15.70;67.20;;;;;;4850698;29;21013;-81
2022/05/13 03:38:41;;;;;;;4.40;1.80;;;15.60;67.20;;;;;;4840977;29;20501;-82
2022/05/13 03:41:09;;;;;;;3.97;2.30;;;15.90;67.20;;;;;;4842691;29;20465;-81
2022/05/13 03:43:36;;;;;;;4.00;1.90;;;15.90;65.80;;;;;;4849363;29;22041;-83
2022/05/13 03:46:03;;;;;;;3.57;2.80;;;15.90;65.70;;;;;;4842567;29;20470;-81
2022/05/13 03:48:30;;;;;;;3.30;1.77;;;15.80;65.40;;;;;;4839796;29;21243;-82
2022/05/13 03:50:56;;;;;;;6.00;1.80;;;15.60;65.70;;;;;;4841754;29;20469;-81
2022/05/13 03:53:23;;;;;;;2.10;1.60;;;15.50;66.20;;;;;;4840720;29;20469;-81
2022/05/13 03:55:49;;;;;;;3.10;1.60;;;15.40;66.80;;;;;;4841655;29;20476;-82
2022/05/13 03:58:16;;;;;;;2.50;1.53;;;15.60;66.50;;;;;;4843645;29;20505;-80
2022/05/13 04:00:44;;;;;;;2.67;1.50;;;15.60;66.10;;;;;;4862972;29;20473;-82
2022/05/13 04:03:12;;;;;;;3.90;1.73;;;15.40;66.90;;;;;;4863869;29;20464;-79
2022/05/13 04:11:11;;;;;;;5.23;2.03;;;15.50;67.40;;;;;;4844979;29;20488;-82
2022/05/13 04:16:23;;;;;;;4.90;2.20;;;15.10;68.60;;;;;;4844445;29;20473;-81
2022/05/13 04:18:50;;;;;;;4.77;2.20;;;15.10;69.30;;;;;;4841337;29;20470;-80
2022/05/13 04:21:24;;;;;;;3.23;1.63;;;15.40;68.50;;;;;;4844920;29;20483;-81
2022/05/13 04:23:53;;;;;;;5.00;1.90;;;15.30;68.40;;;;;;4846740;29;20492;-82
2022/05/13 04:26:21;;;;;;;3.90;1.83;;;15.20;68.90;;;;;;4846950;29;20675;-82
2022/05/13 04:28:49;;;;;;;7.43;2.27;;;15.10;69.10;;;;;;4845969;29;20552;-82
2022/05/13 04:31:20;;;;;;;5.43;2.43;;;15.20;69.50;;;;;;4844826;29;20971;-80
2022/05/13 04:33:49;;;;;;;2.97;1.73;;;15.40;68.70;;;;;;4842043;29;20501;-82
2022/05/13 04:36:15;;;;;;;7.87;3.40;;;15.20;69.20;;;;;;4854252;29;20972;-79
2022/05/13 04:38:42;;;;;;;4.20;1.70;;;15.20;69.60;;;;;;4844026;29;21169;-81
2022/05/13 04:43:54;;;;;;;3.77;1.90;;;15.10;70.00;;;;;;4847353;29;20495;-80
2022/05/13 04:46:21;;;;;;;5.63;2.30;;;15.10;70.10;;;;;;4843667;29;20910;-81
2022/05/13 04:48:48;;;;;;;3.17;2.30;;;15.10;70.30;;;;;;4850236;29;20525;-81
2022/05/13 04:51:19;;;;;;;5.30;2.23;;;15.10;70.50;;;;;;4845378;29;20446;-81
2022/05/13 04:53:48;;;;;;;4.73;1.83;;;15.20;70.50;;;;;;4841123;29;20528;-81
2022/05/13 04:56:16;;;;;;;4.03;1.90;;;15.20;70.20;;;;;;4858265;29;21324;-81
2022/05/13 04:58:42;;;;;;;4.00;1.93;;;15.10;70.40;;;;;;4859823;29;20462;-81
2022/05/13 05:01:10;;;;;;;6.00;2.90;;;15.10;70.40;;;;;;4846768;29;20465;-79
2022/05/13 05:03:40;;;;;;;3.13;1.70;;;15.20;70.40;;;;;;4843501;29;20474;-80
2022/05/13 05:06:08;;;;;;;3.53;1.50;;;15.20;70.30;;;;;;4843933;29;20454;-81
2022/05/13 05:08:36;;;;;;;7.57;3.33;;;15.20;70.90;;;;;;4844642;29;20457;-80
2022/05/13 05:11:03;;;;;;;6.27;1.97;;;15.20;70.70;;;;;;4842986;29;20469;-82
2022/05/13 05:13:33;;;;;;;6.90;2.10;;;15.20;70.70;;;;;;4843598;29;20499;-81
2022/05/13 05:16:00;;;;;;;6.47;2.00;;;15.30;70.90;;;;;;4846706;29;20465;-81
2022/05/13 05:18:28;;;;;;;5.57;2.60;;;15.40;69.90;;;;;;4842617;29;20830;-82
2022/05/13 05:20:55;;;;;;;5.20;1.90;;;15.30;70.20;;;;;;4842528;29;20857;-81
2022/05/13 05:23:24;;;;;;;4.93;2.40;;;15.20;70.80;;;;;;4857318;29;20458;-82
2022/05/13 05:25:51;;;;;;;2.77;1.93;;;15.20;71.00;;;;;;4845699;29;20494;-81
2022/05/13 05:28:26;;;;;;;6.87;2.00;;;15.20;71.50;;;;;;4844942;29;20453;-80
2022/05/13 05:30:54;;;;;;;5.33;2.20;;;15.20;71.90;;;;;;4840229;29;20481;-81
2022/05/13 05:33:21;;;;;;;4.30;1.90;;;15.20;72.00;;;;;;4845186;29;20573;-81
2022/05/13 05:35:47;;;;;;;3.70;2.43;;;15.20;72.30;;;;;;4845969;29;21766;-82
2022/05/13 05:38:14;;;;;;;5.13;2.23;;;15.30;72.10;;;;;;4840863;29;20481;-82
2022/05/13 05:40:41;;;;;;;4.00;1.83;;;15.60;71.30;;;;;;4845727;29;20492;-82
2022/05/13 05:43:11;;;;;;;6.30;2.27;;;15.70;70.50;;;;;;4855617;29;20937;-81
2022/05/13 05:45:40;;;;;;;9.93;2.90;;;15.60;70.60;;;;;;4839880;29;20497;-81
2022/05/13 05:48:12;;;;;;;3.80;2.20;;;15.50;71.30;;;;;;4843717;29;20501;-81
2022/05/13 05:50:39;;;;;;;4.30;2.00;;;15.50;71.80;;;;;;4841166;29;21057;-81
2022/05/13 05:53:06;;;;;;;4.43;3.30;;;15.70;71.60;;;;;;4840010;29;20473;-83
2022/05/13 05:58:19;;;;;;;8.70;2.40;;;15.80;71.20;;;;;;4840840;29;20564;-81
2022/05/13 06:00:48;;;;;;;7.17;2.63;;;15.70;71.70;;;;;;4839587;29;20457;-81
2022/05/13 06:03:16;;;;;;;6.60;2.40;;;15.70;71.70;;;;;;4844324;29;20552;-81
2022/05/13 06:05:46;;;;;;;6.67;2.43;;;15.60;72.10;;;;;;4841045;29;20612;-81
2022/05/13 06:08:12;;;;;;;8.40;2.67;;;15.80;71.60;;;;;;4839673;29;20506;-81
2022/05/13 06:10:40;;;;;;;6.90;3.27;;;15.70;71.80;;;;;;4856355;29;20481;-79
2022/05/13 06:13:07;;;;;;;8.27;3.30;;;15.60;72.50;;;;;;4844108;29;20470;-81
2022/05/13 06:15:34;;;;;;;8.13;2.57;;;15.80;72.40;;;;;;4854173;29;20499;-80
2022/05/13 06:18:01;;;;;;;9.53;3.50;;;16.00;71.90;;;;;;4852452;29;20462;-81
2022/05/13 06:20:30;;;;;;;4.20;2.70;;;16.10;71.00;;;;;;4852717;29;20839;-80
2022/05/13 06:22:57;;;;;;;5.37;2.80;;;16.70;69.50;;;;;;4844496;29;20480;-81
2022/05/13 06:25:26;;;;;;;7.40;2.80;;;16.70;68.30;;;;;;4847804;29;20501;-82
2022/05/13 06:27:54;;;;;;;7.27;2.60;;;16.80;68.30;;;;;;4843824;29;20449;-80
2022/05/13 06:30:26;;;;;;;4.30;2.43;;;16.50;68.70;;;;;;4843292;29;20465;-81
2022/05/13 06:32:54;;;;;;;5.73;2.30;;;16.50;69.20;;;;;;4842877;29;20472;-81
2022/05/13 06:35:22;;;;;;;6.10;2.53;;;16.50;69.30;;;;;;4841127;29;20516;-79
2022/05/13 06:37:48;;;;;;;6.97;2.40;;;16.70;69.10;;;;;;4841123;29;20523;-82
2022/05/13 06:40:15;;;;;;;5.40;3.13;;;16.60;69.10;;;;;;4845898;29;20533;-82
2022/05/13 06:42:42;;;;;;;5.47;2.47;;;17.00;68.10;;;;;;4855665;29;20516;-81
2022/05/13 06:45:09;;;;;;;12.50;3.30;;;16.90;68.40;;;;;;4859759;29;20508;-83
2022/05/13 06:47:36;;;;;;;5.50;2.67;;;17.00;68.80;;;;;;4854676;29;20524;-82
2022/05/13 06:50:07;;;;;;;8.53;1.73;;;16.90;68.60;;;;;;4843679;29;20800;-81
2022/05/13 06:52:34;;;;;;;4.60;2.40;;;17.50;67.30;;;;;;4844326;29;20507;-81
2022/05/13 06:55:10;;;;;;;9.00;3.27;;;17.80;65.30;;;;;;4847422;29;20970;-81
2022/05/13 06:57:39;;;;;;;3.83;2.77;;;17.50;66.30;;;;;;4862215;29;20472;-82
2022/05/13 07:00:09;;;;;;;3.37;2.03;;;17.50;66.40;;;;;;4850830;29;20465;-82
2022/05/13 07:02:36;;;;;;;7.10;2.80;;;17.30;65.70;;;;;;4853321;29;20525;-83
2022/05/13 07:05:03;;;;;;;6.77;2.73;;;17.10;66.70;;;;;;4855308;29;20477;-83
2022/05/13 07:07:30;;;;;;;5.20;2.67;;;17.40;66.50;;;;;;4852456;29;20991;-81
2022/05/13 07:09:57;;;;;;;5.13;2.17;;;17.70;65.20;;;;;;4864606;29;20494;-82
2022/05/13 07:12:23;;;;;;;4.67;2.43;;;17.60;66.00;;;;;;4849920;29;20469;-83
2022/05/13 07:14:50;;;;;;;6.70;2.20;;;17.60;65.20;;;;;;4850027;29;20485;-83
2022/05/13 07:17:17;;;;;;;4.53;3.20;;;17.40;65.10;;;;;;4849423;29;20960;-81
2022/05/13 07:19:43;;;;;;;3.43;1.70;;;17.40;65.70;;;;;;4868921;29;20469;-82
2022/05/13 07:22:11;;;;;;;11.37;3.70;;;17.40;65.70;;;;;;4849887;29;20843;-80
2022/05/13 07:24:38;;;;;;;5.30;2.07;;;17.30;65.30;;;;;;4850685;29;20492;-81
2022/05/13 07:27:05;;;;;;;4.10;2.03;;;17.40;65.40;;;;;;4852539;29;20469;-82
2022/05/13 07:29:33;;;;;;;4.20;2.37;;;17.40;65.00;;;;;;4849125;29;20590;-84
2022/05/13 07:31:59;;;;;;;4.87;2.17;;;17.40;64.90;;;;;;4854349;29;20465;-84
2022/05/13 07:34:26;;;;;;;6.63;2.03;;;17.50;64.60;;;;;;4851303;29;20572;-82
2022/05/13 07:36:54;;;;;;;4.03;2.10;;;17.60;63.60;;;;;;4850039;29;20485;-81
2022/05/13 07:42:10;;;;;;;4.60;1.90;;;18.00;62.10;;;;;;4854140;29;20449;-84
2022/05/13 07:44:37;;;;;;;2.10;1.50;;;18.20;61.50;;;;;;4848359;29;20584;-82
2022/05/13 07:47:06;;;;;;;5.17;1.57;;;19.10;59.70;;;;;;4853312;29;20459;-84
2022/05/13 07:49:34;;;;;;;4.30;2.13;;;19.00;59.00;;;;;;4851669;29;20526;-81
2022/05/13 07:52:01;;;;;;;7.63;1.93;;;18.90;58.90;;;;;;4848977;29;20458;-81
2022/05/13 07:54:28;;;;;;;3.90;1.70;;;19.40;58.10;;;;;;4849369;29;20492;-82
2022/05/13 07:56:55;;;;;;;6.30;2.23;;;19.30;57.80;;;;;;4853325;29;20774;-82
2022/05/13 07:59:21;;;;;;;3.30;1.63;;;19.80;56.60;;;;;;4850979;29;20454;-84
2022/05/13 08:01:48;;;;;;;7.50;2.03;;;19.80;56.90;;;;;;4850581;29;20469;-80
2022/05/13 08:04:15;;;;;;;7.53;1.90;;;20.40;55.80;;;;;;4849021;29;20571;-85
2022/05/13 08:06:44;;;;;;;2.97;1.63;;;19.90;55.80;;;;;;4848858;29;20468;-83
2022/05/13 08:09:11;;;;;;;7.43;2.43;;;19.80;56.10;;;;;;4849162;29;20545;-84
2022/05/13 08:11:38;;;;;;;4.73;1.90;;;20.20;56.20;;;;;;4852343;29;20472;-81
2022/05/13 08:14:06;;;;;;;3.93;2.13;;;21.10;54.40;;;;;;4851005;29;22941;-83
2022/05/13 08:16:35;;;;;;;4.33;1.90;;;21.40;53.70;;;;;;4849646;29;20476;-82
2022/05/13 08:19:02;;;;;;;4.73;2.10;;;22.20;52.70;;;;;;4851538;29;20467;-83
2022/05/13 08:21:30;;;;;;;6.00;1.77;;;22.10;52.10;;;;;;4849812;29;20479;-83
2022/05/13 08:23:57;;;;;;;3.93;1.77;;;22.30;51.80;;;;;;4848963;29;20508;-80
2022/05/13 08:26:24;;;;;;;3.60;1.83;;;22.40;51.10;;;;;;4850943;29;20497;-83
2022/05/13 08:28:50;;;;;;;4.80;2.43;;;22.00;49.70;;;;;;4852714;29;20478;-85
2022/05/13 08:31:17;;;;;;;4.20;1.80;;;22.10;50.00;;;;;;4850957;29;20461;-83
2022/05/13 08:33:44;;;;;;;4.40;1.90;;;22.30;50.80;;;;;;4855157;29;20484;-80
2022/05/13 08:36:14;;;;;;;4.70;1.70;;;22.30;50.10;;;;;;4852477;29;20449;-82
2022/05/13 08:38:44;;;;;;;4.47;1.83;;;22.60;49.50;;;;;;4854924;29;20477;-81
2022/05/13 08:41:26;;;;;;;4.20;1.50;;;22.60;49.20;;;;;;4852008;29;20659;-83
2022/05/13 08:43:57;;;;;;;2.97;1.60;;;23.30;48.10;;;;;;4851926;29;20481;-82
2022/05/13 08:46:36;;;;;;;4.13;1.13;;;23.50;48.00;;;;;;4858153;29;20482;-82
2022/05/13 08:49:08;;;;;;;4.60;1.43;;;23.30;48.10;;;;;;4862682;29;20445;-82
2022/05/13 08:51:59;;;;;;;3.90;1.70;;;23.40;48.20;;;;;;4856944;29;20453;-82
2022/05/13 08:54:32;;;;;;;9.60;2.03;;;23.20;47.90;;;;;;4858305;29;20557;-82
2022/05/13 08:57:03;;;;;;;3.73;1.63;;;22.30;48.90;;;;;;4856264;29;20472;-84
2022/05/13 09:00:04;;;;;;;5.50;1.63;;;22.50;49.20;;;;;;4858211;29;20476;-84
2022/05/13 09:02:47;;;;;;;8.60;1.70;;;22.60;49.10;;;;;;4857225;29;20517;-82
2022/05/13 09:05:27;;;;;;;3.00;1.50;;;22.60;48.70;;;;;;4856180;29;20568;-82
2022/05/13 09:07:56;;;;;;;3.70;1.70;;;23.20;48.30;;;;;;4848165;29;20462;-83
2022/05/13 09:10:24;;;;;;;2.50;1.50;;;23.40;47.70;;;;;;4850513;29;20538;-82
2022/05/13 09:12:50;;;;;;;3.73;1.40;;;23.70;47.50;;;;;;4854951;29;20453;-81
2022/05/13 09:15:35;;;;;;;3.73;1.30;;;24.30;47.30;;;;;;4851830;29;20485;-82
2022/05/13 09:18:25;;;;;;;2.53;1.03;;;24.70;45.50;;;;;;4853443;29;20465;-86
2022/05/13 09:20:58;;;;;;;3.83;1.30;;;25.10;43.90;;;;;;4865208;29;20471;-84
2022/05/13 09:23:26;;;;;;;2.50;1.37;;;24.90;43.20;;;;;;4867354;29;20470;-83
2022/05/13 09:26:10;;;;;;;2.70;1.13;;;24.50;43.10;;;;;;4852122;29;20565;-83
2022/05/13 09:28:43;;;;;;;6.60;1.43;;;24.20;43.50;;;;;;4850073;29;20476;-83
2022/05/13 09:31:20;;;;;;;3.10;1.20;;;24.30;43.10;;;;;;4854321;29;20538;-83
2022/05/13 09:34:55;;;;;;;3.17;0.90;;;24.40;41.90;;;;;;4859558;29;20473;-80
2022/05/13 09:37:27;;;;;;;3.30;1.27;;;24.60;41.90;;;;;;4886255;29;20484;-83
2022/05/13 09:40:18;;;;;;;3.70;0.93;;;24.90;40.90;;;;;;4870307;29;20533;-81
2022/05/13 09:42:54;;;;;;;3.87;1.27;;;25.00;40.90;;;;;;4860443;29;20557;-83
2022/05/13 09:45:29;;;;;;;6.00;1.60;;;24.60;41.60;;;;;;4858079;29;20568;-82
2022/05/13 09:48:00;;;;;;;3.03;1.70;;;24.30;41.80;;;;;;4871376;29;21885;-82
2022/05/13 09:50:34;;;;;;;6.60;1.93;;;23.30;43.60;;;;;;4860277;29;20457;-81
2022/05/13 09:53:02;;;;;;;2.90;1.30;;;22.90;44.40;;;;;;4862007;29;20563;-82
2022/05/13 09:55:39;;;;;;;5.90;1.80;;;22.40;45.10;;;;;;4860063;29;20478;-82
2022/05/13 09:58:18;;;;;;;4.50;1.40;;;21.90;47.30;;;;;;4861451;29;20549;-79
2022/05/13 10:00:48;;;;;;;1.60;1.00;;;22.00;46.30;;;;;;4859570;29;20564;-82
2022/05/13 10:03:36;;;;;;;3.20;1.80;;;22.20;45.90;;;;;;4852412;29;20457;-84
2022/05/13 10:06:10;;;;;;;5.60;1.40;;;23.30;44.80;;;;;;4851813;29;20565;-82
2022/05/13 10:08:55;;;;;;;6.17;1.50;;;22.80;44.90;;;;;;4854076;29;20487;-87
2022/05/13 10:14:30;;;;;;;4.93;1.40;;;22.10;46.80;;;;;;4852867;29;20473;-83
2022/05/13 10:17:16;;;;;;;2.47;1.03;;;21.70;46.60;;;;;;4853259;29;20537;-83
2022/05/13 10:20:03;;;;;;;5.10;1.50;;;21.50;47.20;;;;;;4852252;29;20479;-84
2022/05/13 10:22:50;;;;;;;2.80;1.40;;;21.30;47.60;;;;;;4854513;29;20556;-84
2022/05/13 10:25:29;;;;;;;3.57;1.50;;;21.10;48.20;;;;;;4853437;29;20579;-82
2022/05/13 10:28:10;;;;;;;3.63;1.50;;;21.10;48.60;;;;;;4858837;29;20480;-85
2022/05/13 10:31:02;;;;;;;4.17;1.40;;;21.40;48.40;;;;;;4857910;29;20468;-83
2022/05/13 10:33:38;;;;;;;3.47;1.33;;;21.50;47.70;;;;;;4857340;29;20454;-82
2022/05/13 10:36:10;;;;;;;2.00;1.23;;;21.50;47.60;;;;;;4853460;29;20457;-83
2022/05/13 10:38:47;;;;;;;3.60;1.13;;;21.90;46.90;;;;;;4853362;29;20547;-81
2022/05/13 10:41:22;;;;;;;4.80;1.50;;;22.50;45.60;;;;;;4852275;29;20438;-84
2022/05/13 10:44:30;;;;;;;5.27;1.23;;;22.10;45.70;;;;;;4854259;29;20473;-83
2022/05/13 10:47:01;;;;;;;3.97;1.70;;;21.70;46.60;;;;;;4847192;29;20501;-82
2022/05/13 10:49:39;;;;;;;1.90;1.40;;;21.40;47.30;;;;;;4848450;29;20472;-82
2022/05/13 10:52:21;;;;;;;3.90;1.37;;;21.50;47.90;;;;;;4849101;29;20467;-80
2022/05/13 10:55:14;;;;;;;4.23;1.50;;;21.80;46.90;;;;;;4847030;29;20481;-81
2022/05/13 10:58:25;;;;;;;2.10;1.13;;;21.70;46.80;;;;;;4849171;29;20504;-84
2022/05/13 11:01:10;;;;;;;3.00;1.30;;;21.80;46.90;;;;;;4860643;29;20499;-81
2022/05/13 11:04:00;;;;;;;2.47;1.30;;;21.90;46.60;;;;;;4863223;29;20513;-82
2022/05/13 11:06:42;;;;;;;4.90;1.30;;;22.10;46.20;;;;;;4851970;29;20564;-83
2022/05/13 11:09:21;;;;;;;4.10;1.70;;;22.40;45.30;;;;;;4851033;29;20462;-81
2022/05/13 11:11:48;;;;;;;4.47;1.17;;;22.50;44.80;;;;;;4864078;29;20837;-84
2022/05/13 11:14:39;;;;;;;3.80;1.00;;;22.40;44.90;;;;;;4850435;29;20481;-81
2022/05/13 11:17:11;;;;;;;4.10;1.47;;;22.30;44.90;;;;;;4852478;29;20493;-83
2022/05/13 11:20:15;;;;;;;5.47;1.83;;;22.10;45.30;;;;;;4854922;29;21511;-83
2022/05/13 11:23:07;;;;;;;2.70;1.37;;;22.40;44.90;;;;;;4860318;29;20522;-80
2022/05/13 11:25:58;;;;;;;2.47;1.27;;;22.80;44.50;;;;;;4853615;29;20489;-82
2022/05/13 11:28:28;;;;;;;2.60;0.90;;;23.00;44.20;;;;;;4868191;29;20469;-82
2022/05/13 11:31:10;;;;;;;6.33;1.10;;;23.30;43.90;;;;;;4870545;29;20458;-82
2022/05/13 11:34:08;;;;;;;3.50;1.47;;;23.30;43.70;;;;;;4885931;29;21184;-81
2022/05/13 11:36:56;;;;;;;3.30;1.20;;;23.40;44.30;;;;;;4875087;29;20453;-82
2022/05/13 11:39:40;;;;;;;4.30;1.40;;;23.00;43.70;;;;;;4874896;29;20459;-81
2022/05/13 11:42:16;;;;;;;3.23;1.03;;;22.50;44.60;;;;;;4874381;29;20521;-82
2022/05/13 11:45:12;;;;;;;2.77;1.30;;;22.40;44.80;;;;;;4876611;29;20480;-81
2022/05/13 11:48:10;;;;;;;1.10;1.00;;;22.30;45.80;;;;;;4877107;29;20457;-82
2022/05/13 11:50:37;;;;;;;1.50;1.30;;;22.30;45.10;;;;;;4874048;29;20445;-82
2022/05/13 11:53:05;;;;;;;1.50;1.07;;;22.40;45.00;;;;;;4874368;29;20458;-82
2022/05/13 11:55:41;;;;;;;3.93;1.77;;;22.40;45.00;;;;;;4877368;29;20569;-82
2022/05/13 11:58:28;;;;;;;2.63;1.10;;;22.30;45.70;;;;;;4859839;29;20516;-82
2022/05/13 12:00:55;;;;;;;3.93;1.23;;;22.30;45.40;;;;;;4861293;29;20487;-83
2022/05/13 12:03:22;;;;;;;2.60;2.33;;;22.50;45.30;;;;;;4861737;29;20544;-82
2022/05/13 12:06:03;;;;;;;3.90;1.20;;;22.50;44.70;;;;;;4866696;29;20481;-81
2022/05/13 12:08:37;;;;;;;3.80;1.33;;;22.50;44.80;;;;;;4879886;29;20532;-81
2022/05/13 12:11:10;;;;;;;1.80;1.20;;;22.60;44.80;;;;;;4879194;29;20441;-82
2022/05/13 12:13:49;;;;;;;4.67;1.10;;;22.80;44.20;;;;;;4878865;29;20441;-81
2022/05/13 12:16:15;;;;;;;2.93;1.40;;;23.10;43.60;;;;;;4893166;29;20458;-83
2022/05/13 12:18:49;;;;;;;4.07;1.77;;;23.40;43.90;;;;;;4878131;29;20449;-82
2022/05/13 12:21:39;;;;;;;3.23;2.90;;;23.70;43.60;;;;;;4890762;29;20457;-81
2022/05/13 12:24:11;;;;;;;6.90;3.40;;;24.20;43.30;;;;;;4864743;29;20465;-80
2022/05/13 12:27:07;;;;;;;5.33;3.80;;;24.10;43.40;;;;;;4858329;29;20499;-82
2022/05/13 12:30:04;;;;;;;4.77;3.60;;;23.90;43.60;;;;;;4855828;29;20456;-82
2022/05/13 12:32:36;;;;;;;5.70;3.70;;;24.00;43.30;;;;;;4851540;29;20821;-83
2022/05/13 12:37:55;;;;;;;2.90;2.00;;;23.80;43.20;;;;;;4853077;29;20600;-80
2022/05/13 12:40:22;;;;;;;2.60;2.40;;;23.70;43.40;;;;;;4856495;29;20474;-82
2022/05/13 12:42:51;;;;;;;5.50;3.53;;;23.80;43.80;;;;;;4854288;29;20501;-81
2022/05/13 12:45:23;;;;;;;4.90;4.40;;;24.00;43.30;;;;;;4851162;29;20517;-81
2022/05/13 12:48:06;;;;;;;3.53;2.83;;;24.10;43.30;;;;;;4851126;29;20472;-83
2022/05/13 12:50:44;;;;;;;2.27;1.80;;;24.30;42.90;;;;;;4852123;29;20466;-81
2022/05/13 12:53:29;;;;;;;2.50;1.43;;;24.30;42.30;;;;;;4851584;29;20453;-81
2022/05/13 12:56:07;;;;;;;2.70;1.13;;;24.10;42.30;;;;;;4853830;29;20456;-81
2022/05/13 12:58:37;;;;;;;5.43;1.53;;;24.30;42.40;;;;;;4865646;29;20469;-83
2022/05/13 13:01:05;;;;;;;4.30;1.50;;;24.30;42.20;;;;;;4857178;29;20549;-82
2022/05/13 13:03:39;;;;;;;1.47;1.20;;;24.20;42.50;;;;;;4854479;29;20553;-82
2022/05/13 13:06:12;;;;;;;6.00;1.30;;;23.90;42.70;;;;;;4853164;29;20485;-82
2022/05/13 13:08:41;;;;;;;2.00;1.00;;;24.10;42.90;;;;;;4852059;29;20552;-82
2022/05/13 13:11:27;;;;;;;1.97;1.10;;;24.20;42.60;;;;;;4852985;29;20474;-83
2022/05/13 13:14:25;;;;;;;4.17;1.50;;;24.20;42.60;;;;;;4853091;29;20487;-83
2022/05/13 13:17:36;;;;;;;4.73;2.87;;;25.00;42.30;;;;;;4850109;29;20585;-83
2022/05/13 13:20:14;;;;;;;2.87;0.93;;;25.00;41.90;;;;;;4852655;29;20457;-82
2022/05/13 13:22:46;;;;;;;2.00;1.00;;;24.80;41.80;;;;;;4855852;29;20469;-82
2022/05/13 13:25:45;;;;;;;1.97;1.00;;;24.60;41.50;;;;;;4860144;29;20494;-82
2022/05/13 13:28:19;;;;;;;3.80;1.47;;;24.50;41.40;;;;;;4860496;29;20466;-82
2022/05/13 13:30:55;;;;;;;3.63;1.37;;;24.50;41.50;;;;;;4868892;29;21577;-84
2022/05/13 13:33:29;;;;;;;5.47;1.60;;;24.40;41.90;;;;;;4857294;29;20570;-81
2022/05/13 13:36:22;;;;;;;2.80;1.30;;;24.50;42.00;;;;;;4857084;29;20465;-81